sensor_id;sensor_type;location;lat;lon;timestamp;pressure;altitude;pressure_sealevel;temperature;humidity
67373;BME280;54257;54.496;18.412;2022-10-29T00:00:50;99814.84;;;14.17;96.37
67373;BME280;54257;54.496;18.412;2022-10-29T00:03:34;99811.23;;;14.19;96.20
67373;BME280;54257;54.496;18.412;2022-10-29T00:06:05;99807.80;;;14.19;96.30
67373;BME280;54257;54.496;18.412;2022-10-29T00:08:34;99806.75;;;14.22;96.35
67373;BME280;54257;54.496;18.412;2022-10-29T00:11:06;99800.90;;;14.23;96.00
67373;BME280;54257;54.496;18.412;2022-10-29T00:13:34;99795.41;;;14.24;96.03
67373;BME280;54257;54.496;18.412;2022-10-29T00:16:07;99800.58;;;14.26;96.04
67373;BME280;54257;54.496;18.412;2022-10-29T00:18:36;99803.14;;;14.28;96.11
67373;BME280;54257;54.496;18.412;2022-10-29T00:21:05;99796.09;;;14.30;96.00
67373;BME280;54257;54.496;18.412;2022-10-29T00:23:33;99792.98;;;14.31;95.93
67373;BME280;54257;54.496;18.412;2022-10-29T00:26:01;99787.32;;;14.32;96.08
67373;BME280;54257;54.496;18.412;2022-10-29T00:28:30;99782.70;;;14.34;95.92
67373;BME280;54257;54.496;18.412;2022-10-29T00:31:01;99780.12;;;14.35;95.78
67373;BME280;54257;54.496;18.412;2022-10-29T00:33:28;99776.16;;;14.35;95.67
67373;BME280;54257;54.496;18.412;2022-10-29T00:35:58;99776.84;;;14.35;95.70
67373;BME280;54257;54.496;18.412;2022-10-29T00:38:26;99774.78;;;14.36;95.67
67373;BME280;54257;54.496;18.412;2022-10-29T00:40:54;99779.42;;;14.37;95.80
67373;BME280;54257;54.496;18.412;2022-10-29T00:43:23;99780.09;;;14.38;95.65
67373;BME280;54257;54.496;18.412;2022-10-29T00:46:07;99779.40;;;14.40;95.56
67373;BME280;54257;54.496;18.412;2022-10-29T00:48:48;99772.02;;;14.40;95.41
67373;BME280;54257;54.496;18.412;2022-10-29T00:51:16;99767.02;;;14.40;95.53
67373;BME280;54257;54.496;18.412;2022-10-29T00:53:57;99760.67;;;14.40;95.55
67373;BME280;54257;54.496;18.412;2022-10-29T00:56:26;99769.61;;;14.40;95.35
67373;BME280;54257;54.496;18.412;2022-10-29T00:58:55;99771.16;;;14.38;95.27
67373;BME280;54257;54.496;18.412;2022-10-29T01:01:23;99765.83;;;14.38;95.16
67373;BME280;54257;54.496;18.412;2022-10-29T01:03:51;99769.29;;;14.37;95.03
67373;BME280;54257;54.496;18.412;2022-10-29T01:06:21;99773.41;;;14.36;95.28
67373;BME280;54257;54.496;18.412;2022-10-29T01:08:49;99765.50;;;14.35;95.12
67373;BME280;54257;54.496;18.412;2022-10-29T01:22:39;99756.75;;;14.35;95.34
67373;BME280;54257;54.496;18.412;2022-10-29T01:33:19;99750.40;;;14.28;95.32
67373;BME280;54257;54.496;18.412;2022-10-29T01:38:47;99745.76;;;14.28;95.55
67373;BME280;54257;54.496;18.412;2022-10-29T01:41:35;99744.55;;;14.28;95.45
67373;BME280;54257;54.496;18.412;2022-10-29T01:47:17;99745.42;;;14.26;95.28
67373;BME280;54257;54.496;18.412;2022-10-29T01:49:52;99747.32;;;14.26;95.39
67373;BME280;54257;54.496;18.412;2022-10-29T01:52:21;99753.83;;;14.25;95.39
67373;BME280;54257;54.496;18.412;2022-10-29T01:54:48;99756.06;;;14.23;95.62
67373;BME280;54257;54.496;18.412;2022-10-29T01:59:52;99761.56;;;14.24;95.56
67373;BME280;54257;54.496;18.412;2022-10-29T02:05:38;99756.91;;;14.24;95.72
67373;BME280;54257;54.496;18.412;2022-10-29T02:10:52;99749.19;;;14.24;95.67
67373;BME280;54257;54.496;18.412;2022-10-29T02:13:32;99740.61;;;14.25;96.06
67373;BME280;54257;54.496;18.412;2022-10-29T02:16:06;99744.56;;;14.28;95.92
67373;BME280;54257;54.496;18.412;2022-10-29T02:18:44;99744.73;;;14.28;95.97
67373;BME280;54257;54.496;18.412;2022-10-29T02:21:17;99742.66;;;14.29;96.12
67373;BME280;54257;54.496;18.412;2022-10-29T02:23:45;99738.52;;;14.30;95.91
67373;BME280;54257;54.496;18.412;2022-10-29T02:26:13;99739.90;;;14.31;95.88
67373;BME280;54257;54.496;18.412;2022-10-29T02:28:39;99747.11;;;14.32;95.86
67373;BME280;54257;54.496;18.412;2022-10-29T02:31:06;99745.55;;;14.32;95.88
67373;BME280;54257;54.496;18.412;2022-10-29T02:33:33;99747.80;;;14.31;95.88
67373;BME280;54257;54.496;18.412;2022-10-29T02:36:01;99745.58;;;14.30;95.54
67373;BME280;54257;54.496;18.412;2022-10-29T02:38:28;99740.08;;;14.29;95.44
67373;BME280;54257;54.496;18.412;2022-10-29T02:40:54;99726.69;;;14.28;95.59
67373;BME280;54257;54.496;18.412;2022-10-29T02:43:21;99728.58;;;14.28;95.69
67373;BME280;54257;54.496;18.412;2022-10-29T02:45:49;99725.31;;;14.28;95.73
67373;BME280;54257;54.496;18.412;2022-10-29T02:48:16;99721.70;;;14.29;95.82
67373;BME280;54257;54.496;18.412;2022-10-29T02:50:43;99724.80;;;14.30;95.78
67373;BME280;54257;54.496;18.412;2022-10-29T02:53:10;99721.17;;;14.30;95.82
67373;BME280;54257;54.496;18.412;2022-10-29T02:55:37;99717.22;;;14.31;95.79
67373;BME280;54257;54.496;18.412;2022-10-29T02:58:04;99715.15;;;14.32;95.73
67373;BME280;54257;54.496;18.412;2022-10-29T03:00:31;99714.48;;;14.34;95.77
67373;BME280;54257;54.496;18.412;2022-10-29T03:02:58;99709.48;;;14.35;95.63
67373;BME280;54257;54.496;18.412;2022-10-29T03:05:25;99717.05;;;14.36;95.68
67373;BME280;54257;54.496;18.412;2022-10-29T03:07:52;99715.66;;;14.38;95.91
67373;BME280;54257;54.496;18.412;2022-10-29T03:10:19;99716.85;;;14.41;95.81
67373;BME280;54257;54.496;18.412;2022-10-29T03:12:46;99720.98;;;14.42;95.63
67373;BME280;54257;54.496;18.412;2022-10-29T03:15:13;99727.52;;;14.44;95.73
67373;BME280;54257;54.496;18.412;2022-10-29T03:17:40;99729.59;;;14.47;95.79
67373;BME280;54257;54.496;18.412;2022-10-29T03:20:07;99735.41;;;14.49;95.72
67373;BME280;54257;54.496;18.412;2022-10-29T03:22:35;99733.02;;;14.51;95.62
67373;BME280;54257;54.496;18.412;2022-10-29T03:25:03;99717.54;;;14.53;95.53
67373;BME280;54257;54.496;18.412;2022-10-29T03:27:30;99715.64;;;14.54;95.54
67373;BME280;54257;54.496;18.412;2022-10-29T03:29:57;99710.65;;;14.57;95.48
67373;BME280;54257;54.496;18.412;2022-10-29T03:32:24;99712.88;;;14.60;95.46
67373;BME280;54257;54.496;18.412;2022-10-29T03:34:51;99714.77;;;14.61;95.24
67373;BME280;54257;54.496;18.412;2022-10-29T03:37:18;99714.92;;;14.62;95.40
67373;BME280;54257;54.496;18.412;2022-10-29T03:39:45;99718.34;;;14.64;95.27
67373;BME280;54257;54.496;18.412;2022-10-29T03:42:12;99713.36;;;14.65;95.23
67373;BME280;54257;54.496;18.412;2022-10-29T03:44:42;99715.42;;;14.65;95.11
67373;BME280;54257;54.496;18.412;2022-10-29T03:47:09;99721.09;;;14.65;95.24
67373;BME280;54257;54.496;18.412;2022-10-29T03:49:35;99727.28;;;14.66;95.24
67373;BME280;54257;54.496;18.412;2022-10-29T03:52:02;99731.41;;;14.65;95.07
67373;BME280;54257;54.496;18.412;2022-10-29T03:54:29;99728.31;;;14.64;95.26
67373;BME280;54257;54.496;18.412;2022-10-29T03:56:56;99726.95;;;14.64;94.91
67373;BME280;54257;54.496;18.412;2022-10-29T03:59:26;99722.66;;;14.62;95.05
67373;BME280;54257;54.496;18.412;2022-10-29T04:01:53;99721.64;;;14.61;94.95
67373;BME280;54257;54.496;18.412;2022-10-29T04:04:20;99715.79;;;14.60;95.09
67373;BME280;54257;54.496;18.412;2022-10-29T04:06:47;99713.05;;;14.59;94.96
67373;BME280;54257;54.496;18.412;2022-10-29T04:09:14;99713.39;;;14.55;95.12
67373;BME280;54257;54.496;18.412;2022-10-29T04:11:41;99712.20;;;14.54;95.26
67373;BME280;54257;54.496;18.412;2022-10-29T04:14:08;99713.41;;;14.52;95.19
67373;BME280;54257;54.496;18.412;2022-10-29T04:16:35;99705.17;;;14.50;95.39
67373;BME280;54257;54.496;18.412;2022-10-29T04:19:03;99700.19;;;14.48;95.26
67373;BME280;54257;54.496;18.412;2022-10-29T04:21:30;99693.67;;;14.45;95.24
67373;BME280;54257;54.496;18.412;2022-10-29T04:23:57;99698.47;;;14.42;95.59
67373;BME280;54257;54.496;18.412;2022-10-29T04:26:23;99706.38;;;14.39;95.57
67373;BME280;54257;54.496;18.412;2022-10-29T04:28:51;99715.84;;;14.36;95.82
67373;BME280;54257;54.496;18.412;2022-10-29T04:31:18;99713.96;;;14.34;95.80
67373;BME280;54257;54.496;18.412;2022-10-29T04:33:45;99711.38;;;14.32;96.02
67373;BME280;54257;54.496;18.412;2022-10-29T04:36:12;99711.55;;;14.31;96.17
67373;BME280;54257;54.496;18.412;2022-10-29T04:38:39;99705.54;;;14.30;96.99
67373;BME280;54257;54.496;18.412;2022-10-29T04:41:06;99701.41;;;14.31;97.36
67373;BME280;54257;54.496;18.412;2022-10-29T04:43:34;99702.10;;;14.31;97.56
67373;BME280;54257;54.496;18.412;2022-10-29T04:46:01;99705.70;;;14.33;97.91
67373;BME280;54257;54.496;18.412;2022-10-29T04:48:28;99697.81;;;14.34;98.17
67373;BME280;54257;54.496;18.412;2022-10-29T04:50:55;99700.39;;;14.35;98.13
67373;BME280;54257;54.496;18.412;2022-10-29T04:53:22;99693.34;;;14.35;98.54
67373;BME280;54257;54.496;18.412;2022-10-29T04:55:49;99695.56;;;14.36;98.76
67373;BME280;54257;54.496;18.412;2022-10-29T04:58:18;99697.11;;;14.36;98.53
67373;BME280;54257;54.496;18.412;2022-10-29T05:00:45;99702.95;;;14.37;98.82
67373;BME280;54257;54.496;18.412;2022-10-29T05:03:12;99710.51;;;14.37;99.27
67373;BME280;54257;54.496;18.412;2022-10-29T05:05:39;99717.38;;;14.38;99.21
67373;BME280;54257;54.496;18.412;2022-10-29T05:08:09;99718.75;;;14.38;99.34
67373;BME280;54257;54.496;18.412;2022-10-29T05:10:40;99721.51;;;14.37;99.81
67373;BME280;54257;54.496;18.412;2022-10-29T05:13:11;99723.58;;;14.37;99.81
67373;BME280;54257;54.496;18.412;2022-10-29T05:15:39;99724.95;;;14.36;100.00
67373;BME280;54257;54.496;18.412;2022-10-29T05:18:06;99734.23;;;14.36;99.66
67373;BME280;54257;54.496;18.412;2022-10-29T05:20:34;99735.95;;;14.35;99.55
67373;BME280;54257;54.496;18.412;2022-10-29T05:23:05;99726.51;;;14.34;99.87
67373;BME280;54257;54.496;18.412;2022-10-29T05:25:35;99731.14;;;14.32;99.89
67373;BME280;54257;54.496;18.412;2022-10-29T05:28:17;99733.88;;;14.32;99.72
67373;BME280;54257;54.496;18.412;2022-10-29T05:30:46;99719.98;;;14.29;100.00
67373;BME280;54257;54.496;18.412;2022-10-29T05:33:15;99716.71;;;14.30;99.95
67373;BME280;54257;54.496;18.412;2022-10-29T05:35:43;99723.59;;;14.29;100.00
67373;BME280;54257;54.496;18.412;2022-10-29T05:38:11;99734.42;;;14.28;100.00
67373;BME280;54257;54.496;18.412;2022-10-29T05:40:39;99729.95;;;14.28;100.00
67373;BME280;54257;54.496;18.412;2022-10-29T05:43:08;99733.05;;;14.27;100.00
67373;BME280;54257;54.496;18.412;2022-10-29T05:45:35;99736.30;;;14.28;100.00
67373;BME280;54257;54.496;18.412;2022-10-29T05:48:02;99732.70;;;14.27;100.00
67373;BME280;54257;54.496;18.412;2022-10-29T05:50:31;99733.56;;;14.27;100.00
67373;BME280;54257;54.496;18.412;2022-10-29T05:53:03;99735.80;;;14.26;100.00
67373;BME280;54257;54.496;18.412;2022-10-29T05:55:32;99745.25;;;14.26;100.00
67373;BME280;54257;54.496;18.412;2022-10-29T05:58:02;99740.79;;;14.25;100.00
67373;BME280;54257;54.496;18.412;2022-10-29T06:00:33;99746.98;;;14.25;100.00
67373;BME280;54257;54.496;18.412;2022-10-29T06:03:00;99755.05;;;14.25;100.00
67373;BME280;54257;54.496;18.412;2022-10-29T06:05:27;99750.41;;;14.26;100.00
67373;BME280;54257;54.496;18.412;2022-10-29T06:07:56;99750.40;;;14.26;100.00
67373;BME280;54257;54.496;18.412;2022-10-29T06:10:25;99748.17;;;14.27;99.84
67373;BME280;54257;54.496;18.412;2022-10-29T06:12:52;99744.90;;;14.28;99.77
67373;BME280;54257;54.496;18.412;2022-10-29T06:15:19;99752.11;;;14.28;99.46
67373;BME280;54257;54.496;18.412;2022-10-29T06:17:47;99751.08;;;14.30;99.34
67373;BME280;54257;54.496;18.412;2022-10-29T06:20:17;99755.38;;;14.30;99.26
67373;BME280;54257;54.496;18.412;2022-10-29T06:22:44;99757.59;;;14.32;98.91
67373;BME280;54257;54.496;18.412;2022-10-29T06:25:11;99750.04;;;14.32;98.80
67373;BME280;54257;54.496;18.412;2022-10-29T06:27:39;99756.58;;;14.33;98.24
67373;BME280;54257;54.496;18.412;2022-10-29T06:30:06;99759.50;;;14.35;97.87
67373;BME280;54257;54.496;18.412;2022-10-29T06:32:34;99767.05;;;14.36;97.54
67373;BME280;54257;54.496;18.412;2022-10-29T06:35:01;99771.85;;;14.38;97.05
67373;BME280;54257;54.496;18.412;2022-10-29T06:37:28;99773.55;;;14.40;96.89
67373;BME280;54257;54.496;18.412;2022-10-29T06:39:58;99784.56;;;14.41;96.36
67373;BME280;54257;54.496;18.412;2022-10-29T06:42:25;99787.66;;;14.41;95.32
67373;BME280;54257;54.496;18.412;2022-10-29T06:44:52;99791.27;;;14.42;94.69
67373;BME280;54257;54.496;18.412;2022-10-29T06:47:19;99795.23;;;14.43;94.79
67373;BME280;54257;54.496;18.412;2022-10-29T06:49:46;99793.16;;;14.44;94.43
67373;BME280;54257;54.496;18.412;2022-10-29T06:52:16;99798.83;;;14.45;93.94
67373;BME280;54257;54.496;18.412;2022-10-29T06:54:43;99793.16;;;14.45;93.78
67373;BME280;54257;54.496;18.412;2022-10-29T06:57:10;99791.95;;;14.45;93.53
67373;BME280;54257;54.496;18.412;2022-10-29T06:59:37;99796.09;;;14.46;93.52
67373;BME280;54257;54.496;18.412;2022-10-29T07:02:04;99791.98;;;14.45;93.17
67373;BME280;54257;54.496;18.412;2022-10-29T07:04:31;99794.37;;;14.45;92.63
67373;BME280;54257;54.496;18.412;2022-10-29T07:06:58;99796.95;;;14.44;92.52
67373;BME280;54257;54.496;18.412;2022-10-29T07:09:25;99808.80;;;14.45;92.77
67373;BME280;54257;54.496;18.412;2022-10-29T07:11:52;99816.55;;;14.45;92.24
67373;BME280;54257;54.496;18.412;2022-10-29T07:14:19;99811.39;;;14.45;92.16
67373;BME280;54257;54.496;18.412;2022-10-29T07:16:47;99813.29;;;14.46;91.54
67373;BME280;54257;54.496;18.412;2022-10-29T07:19:15;99814.83;;;14.47;91.61
67373;BME280;54257;54.496;18.412;2022-10-29T07:21:41;99810.88;;;14.46;91.30
67373;BME280;54257;54.496;18.412;2022-10-29T07:24:09;99808.98;;;14.46;91.06
67373;BME280;54257;54.496;18.412;2022-10-29T07:26:37;99811.56;;;14.46;90.90
67373;BME280;54257;54.496;18.412;2022-10-29T07:29:04;99811.04;;;14.48;90.75
67373;BME280;54257;54.496;18.412;2022-10-29T07:31:31;99812.42;;;14.48;90.77
67373;BME280;54257;54.496;18.412;2022-10-29T07:33:58;99809.84;;;14.51;90.81
67373;BME280;54257;54.496;18.412;2022-10-29T07:36:24;99811.38;;;14.53;90.65
67373;BME280;54257;54.496;18.412;2022-10-29T07:38:52;99810.00;;;14.54;90.28
67373;BME280;54257;54.496;18.412;2022-10-29T07:41:19;99812.05;;;14.57;89.47
67373;BME280;54257;54.496;18.412;2022-10-29T07:43:46;99815.50;;;14.60;89.36
67373;BME280;54257;54.496;18.412;2022-10-29T07:46:13;99814.29;;;14.63;89.16
67373;BME280;54257;54.496;18.412;2022-10-29T07:48:40;99818.40;;;14.66;89.32
67373;BME280;54257;54.496;18.412;2022-10-29T07:51:10;99820.64;;;14.69;88.53
67373;BME280;54257;54.496;18.412;2022-10-29T07:53:37;99825.61;;;14.71;88.40
67373;BME280;54257;54.496;18.412;2022-10-29T07:56:04;99825.44;;;14.73;88.34
67373;BME280;54257;54.496;18.412;2022-10-29T07:58:31;99829.73;;;14.74;88.07
67373;BME280;54257;54.496;18.412;2022-10-29T08:00:58;99836.42;;;14.73;87.92
67373;BME280;54257;54.496;18.412;2022-10-29T08:03:26;99838.50;;;14.71;87.27
67373;BME280;54257;54.496;18.412;2022-10-29T08:05:56;99847.27;;;14.70;87.22
67373;BME280;54257;54.496;18.412;2022-10-29T08:08:23;99845.75;;;14.67;87.15
67373;BME280;54257;54.496;18.412;2022-10-29T08:10:51;99840.92;;;14.69;86.87
67373;BME280;54257;54.496;18.412;2022-10-29T08:13:18;99844.20;;;14.68;86.81
67373;BME280;54257;54.496;18.412;2022-10-29T08:15:45;99839.91;;;14.67;86.45
67373;BME280;54257;54.496;18.412;2022-10-29T08:18:16;99844.88;;;14.65;86.52
67373;BME280;54257;54.496;18.412;2022-10-29T08:20:44;99845.73;;;14.64;86.09
67373;BME280;54257;54.496;18.412;2022-10-29T08:23:14;99850.05;;;14.60;85.71
67373;BME280;54257;54.496;18.412;2022-10-29T08:25:42;99854.35;;;14.60;86.22
67373;BME280;54257;54.496;18.412;2022-10-29T08:28:12;99849.89;;;14.59;85.97
67373;BME280;54257;54.496;18.412;2022-10-29T08:30:40;99855.22;;;14.59;86.11
67373;BME280;54257;54.496;18.412;2022-10-29T08:33:08;99864.67;;;14.61;86.11
67373;BME280;54257;54.496;18.412;2022-10-29T08:35:35;99880.31;;;14.62;86.03
67373;BME280;54257;54.496;18.412;2022-10-29T08:38:02;99884.60;;;14.63;85.44
67373;BME280;54257;54.496;18.412;2022-10-29T08:40:35;99887.69;;;14.66;85.54
67373;BME280;54257;54.496;18.412;2022-10-29T08:45:57;99889.39;;;14.79;85.39
67373;BME280;54257;54.496;18.412;2022-10-29T08:48:47;99882.69;;;14.83;85.05
67373;BME280;54257;54.496;18.412;2022-10-29T08:51:30;99873.02;;;14.90;84.99
67373;BME280;54257;54.496;18.412;2022-10-29T08:54:00;99887.14;;;14.93;83.81
67373;BME280;54257;54.496;18.412;2022-10-29T08:56:31;99896.75;;;14.96;83.61
67373;BME280;54257;54.496;18.412;2022-10-29T09:01:29;99903.27;;;15.07;83.59
67373;BME280;54257;54.496;18.412;2022-10-29T09:03:56;99907.70;;;15.19;83.14
67373;BME280;54257;54.496;18.412;2022-10-29T09:17:18;99911.86;;;15.93;77.92
67373;BME280;54257;54.496;18.412;2022-10-29T09:22:54;99921.86;;;16.21;75.58
67373;BME280;54257;54.496;18.412;2022-10-29T09:25:29;99924.13;;;16.39;74.24
67373;BME280;54257;54.496;18.412;2022-10-29T09:28:20;99917.61;;;16.56;73.82
67373;BME280;54257;54.496;18.412;2022-10-29T09:31:10;99921.34;;;16.65;72.08
67373;BME280;54257;54.496;18.412;2022-10-29T09:33:39;99922.23;;;16.62;71.46
67373;BME280;54257;54.496;18.412;2022-10-29T09:36:14;99926.59;;;16.56;71.79
67373;BME280;54257;54.496;18.412;2022-10-29T09:39:14;99931.10;;;16.51;71.73
67373;BME280;54257;54.496;18.412;2022-10-29T09:41:43;99933.42;;;16.43;71.88
67373;BME280;54257;54.496;18.412;2022-10-29T09:44:31;99934.71;;;16.32;71.53
67373;BME280;54257;54.496;18.412;2022-10-29T09:52:16;99946.13;;;15.99;71.64
67373;BME280;54257;54.496;18.412;2022-10-29T09:54:49;99941.52;;;15.92;71.95
67373;BME280;54257;54.496;18.412;2022-10-29T09:57:21;99942.92;;;15.84;72.07
67373;BME280;54257;54.496;18.412;2022-10-29T09:59:53;99950.66;;;15.89;72.94
67373;BME280;54257;54.496;18.412;2022-10-29T10:02:23;99949.01;;;16.06;72.54
67373;BME280;54257;54.496;18.412;2022-10-29T10:05:03;99949.61;;;16.20;71.61
67373;BME280;54257;54.496;18.412;2022-10-29T10:07:30;99958.77;;;16.17;70.30
67373;BME280;54257;54.496;18.412;2022-10-29T10:10:01;99959.67;;;16.10;70.78
67373;BME280;54257;54.496;18.412;2022-10-29T10:12:44;99958.66;;;16.06;70.84
67373;BME280;54257;54.496;18.412;2022-10-29T10:20:39;99963.95;;;15.83;71.25
67373;BME280;54257;54.496;18.412;2022-10-29T10:23:29;99968.46;;;15.77;70.82
67373;BME280;54257;54.496;18.412;2022-10-29T10:26:04;99962.13;;;15.64;70.39
67373;BME280;54257;54.496;18.412;2022-10-29T10:28:32;99959.39;;;15.57;70.84
67373;BME280;54257;54.496;18.412;2022-10-29T10:31:13;99963.01;;;15.58;71.36
67373;BME280;54257;54.496;18.412;2022-10-29T10:33:52;99968.86;;;15.60;71.27
67373;BME280;54257;54.496;18.412;2022-10-29T10:36:23;99963.68;;;15.67;71.20
67373;BME280;54257;54.496;18.412;2022-10-29T10:38:54;99955.55;;;15.76;71.89
67373;BME280;54257;54.496;18.412;2022-10-29T10:41:26;99960.95;;;15.97;72.85
67373;BME280;54257;54.496;18.412;2022-10-29T10:43:59;99952.73;;;16.19;71.70
67373;BME280;54257;54.496;18.412;2022-10-29T10:46:34;99952.49;;;16.28;70.24
67373;BME280;54257;54.496;18.412;2022-10-29T10:49:05;99964.09;;;16.47;71.32
67373;BME280;54257;54.496;18.412;2022-10-29T10:51:48;99964.27;;;16.70;71.61
67373;BME280;54257;54.496;18.412;2022-10-29T10:54:39;99968.40;;;16.92;69.78
67373;BME280;54257;54.496;18.412;2022-10-29T11:00:08;99967.95;;;17.02;68.09
67373;BME280;54257;54.496;18.412;2022-10-29T11:05:35;99960.98;;;17.26;67.88
67373;BME280;54257;54.496;18.412;2022-10-29T11:08:11;99968.02;;;17.30;66.08
67373;BME280;54257;54.496;18.412;2022-10-29T11:10:47;99964.57;;;17.30;65.55
67373;BME280;54257;54.496;18.412;2022-10-29T11:13:21;99967.85;;;17.30;65.91
67373;BME280;54257;54.496;18.412;2022-10-29T11:18:42;99959.36;;;17.31;65.72
67373;BME280;54257;54.496;18.412;2022-10-29T11:21:32;99955.46;;;17.26;64.34
67373;BME280;54257;54.496;18.412;2022-10-29T11:24:25;99963.06;;;17.25;64.72
67373;BME280;54257;54.496;18.412;2022-10-29T11:27:46;99969.19;;;17.17;63.87
67373;BME280;54257;54.496;18.412;2022-10-29T11:30:00;99971.43;;;17.17;63.92
67373;BME280;54257;54.496;18.412;2022-10-29T11:33:29;99970.27;;;17.13;63.96
67373;BME280;54257;54.496;18.412;2022-10-29T11:35:36;99968.35;;;16.97;63.55
67373;BME280;54257;54.496;18.412;2022-10-29T11:38:15;99964.16;;;16.83;63.85
67373;BME280;54257;54.496;18.412;2022-10-29T11:43:20;99962.09;;;16.60;64.43
67373;BME280;54257;54.496;18.412;2022-10-29T11:46:09;99965.98;;;16.48;64.45
67373;BME280;54257;54.496;18.412;2022-10-29T11:48:58;99968.77;;;16.42;64.78
67373;BME280;54257;54.496;18.412;2022-10-29T11:57:40;99969.75;;;16.27;64.56
67373;BME280;54257;54.496;18.412;2022-10-29T12:00:19;99968.92;;;16.20;64.68
67373;BME280;54257;54.496;18.412;2022-10-29T12:24:30;99952.86;;;16.24;63.91
67373;BME280;54257;54.496;18.412;2022-10-29T12:29:55;99962.70;;;16.19;64.34
67373;BME280;54257;54.496;18.412;2022-10-29T12:38:14;99977.02;;;16.22;64.45
67373;BME280;54257;54.496;18.412;2022-10-29T12:40:47;99981.46;;;16.25;63.39
67373;BME280;54257;54.496;18.412;2022-10-29T12:43:27;99987.52;;;16.21;62.97
67373;BME280;54257;54.496;18.412;2022-10-29T12:46:20;99988.58;;;16.18;63.49
67373;BME280;54257;54.496;18.412;2022-10-29T12:49:07;99988.23;;;16.18;62.93
67373;BME280;54257;54.496;18.412;2022-10-29T12:56:50;99995.73;;;16.01;61.92
67373;BME280;54257;54.496;18.412;2022-10-29T12:59:33;99999.91;;;15.92;62.46
67373;BME280;54257;54.496;18.412;2022-10-29T13:02:26;100000.64;;;15.85;62.81
67373;BME280;54257;54.496;18.412;2022-10-29T13:07:33;100003.41;;;15.82;63.07
67373;BME280;54257;54.496;18.412;2022-10-29T13:20:42;99995.83;;;15.83;63.71
67373;BME280;54257;54.496;18.412;2022-10-29T13:23:38;99999.27;;;15.84;63.43
67373;BME280;54257;54.496;18.412;2022-10-29T13:26:07;99998.40;;;15.84;63.05
67373;BME280;54257;54.496;18.412;2022-10-29T13:41:25;100008.01;;;15.31;63.85
67373;BME280;54257;54.496;18.412;2022-10-29T13:44:13;99999.94;;;15.14;64.12
67373;BME280;54257;54.496;18.412;2022-10-29T13:46:57;100004.27;;;14.99;64.66
67373;BME280;54257;54.496;18.412;2022-10-29T13:52:00;99993.27;;;14.78;65.85
67373;BME280;54257;54.496;18.412;2022-10-29T13:54:36;99990.51;;;14.70;66.24
67373;BME280;54257;54.496;18.412;2022-10-29T13:57:14;100003.23;;;14.62;66.73
67373;BME280;54257;54.496;18.412;2022-10-29T13:59:55;100002.88;;;14.53;67.46
67373;BME280;54257;54.496;18.412;2022-10-29T14:02:36;99999.93;;;14.44;68.06
67373;BME280;54257;54.496;18.412;2022-10-29T14:05:18;99997.66;;;14.37;68.42
67373;BME280;54257;54.496;18.412;2022-10-29T14:08:10;100008.46;;;14.31;68.96
67373;BME280;54257;54.496;18.412;2022-10-29T14:16:10;100020.80;;;14.15;69.60
67373;BME280;54257;54.496;18.412;2022-10-29T14:18:43;100032.64;;;14.08;69.86
67373;BME280;54257;54.496;18.412;2022-10-29T14:21:18;100030.90;;;14.03;69.85
67373;BME280;54257;54.496;18.412;2022-10-29T14:24:04;100029.85;;;13.96;69.64
67373;BME280;54257;54.496;18.412;2022-10-29T14:26:35;100031.02;;;13.88;69.49
67373;BME280;54257;54.496;18.412;2022-10-29T14:29:22;100047.81;;;13.83;69.38
67373;BME280;54257;54.496;18.412;2022-10-29T14:32:06;100044.02;;;13.79;69.49
67373;BME280;54257;54.496;18.412;2022-10-29T14:34:37;100034.89;;;13.73;69.66
67373;BME280;54257;54.496;18.412;2022-10-29T14:37:32;100028.53;;;13.70;69.73
67373;BME280;54257;54.496;18.412;2022-10-29T14:40:17;100020.79;;;13.66;69.61
67373;BME280;54257;54.496;18.412;2022-10-29T14:42:49;100016.98;;;13.60;69.59
67373;BME280;54257;54.496;18.412;2022-10-29T14:45:23;100030.50;;;13.54;69.70
67373;BME280;54257;54.496;18.412;2022-10-29T14:48:01;100027.03;;;13.47;69.81
67373;BME280;54257;54.496;18.412;2022-10-29T14:50:35;100017.05;;;13.42;69.80
67373;BME280;54257;54.496;18.412;2022-10-29T14:53:07;100014.95;;;13.35;69.88
67373;BME280;54257;54.496;18.412;2022-10-29T14:55:46;100015.61;;;13.30;70.15
67373;BME280;54257;54.496;18.412;2022-10-29T14:58:27;100017.80;;;13.26;70.31
67373;BME280;54257;54.496;18.412;2022-10-29T15:01:02;100018.27;;;13.21;70.44
67373;BME280;54257;54.496;18.412;2022-10-29T15:03:32;100021.48;;;13.13;70.87
67373;BME280;54257;54.496;18.412;2022-10-29T15:06:27;100020.39;;;13.08;71.07
67373;BME280;54257;54.496;18.412;2022-10-29T15:08:59;100016.92;;;13.02;71.18
67373;BME280;54257;54.496;18.412;2022-10-29T15:11:40;100023.73;;;12.96;71.36
67373;BME280;54257;54.496;18.412;2022-10-29T15:14:24;100025.23;;;12.91;71.36
67373;BME280;54257;54.496;18.412;2022-10-29T15:16:52;100027.77;;;12.86;71.60
67373;BME280;54257;54.496;18.412;2022-10-29T15:19:19;100024.63;;;12.80;71.80
67373;BME280;54257;54.496;18.412;2022-10-29T15:21:48;100026.13;;;12.73;72.10
67373;BME280;54257;54.496;18.412;2022-10-29T15:24:19;100036.17;;;12.67;72.35
67373;BME280;54257;54.496;18.412;2022-10-29T15:26:53;100041.59;;;12.60;72.59
67373;BME280;54257;54.496;18.412;2022-10-29T15:29:25;100045.66;;;12.55;72.68
67373;BME280;54257;54.496;18.412;2022-10-29T15:31:55;100046.79;;;12.49;73.16
67373;BME280;54257;54.496;18.412;2022-10-29T15:34:36;100053.23;;;12.42;73.27
67373;BME280;54257;54.496;18.412;2022-10-29T15:42:30;100061.06;;;12.23;74.40
67373;BME280;54257;54.496;18.412;2022-10-29T15:47:33;100061.10;;;12.11;74.63
67373;BME280;54257;54.496;18.412;2022-10-29T15:50:01;100066.66;;;12.04;75.22